createdAt,value
2019-03-26T00:01:45.359Z,73.30
2019-03-26T00:04:15.451Z,73.40
2019-03-26T00:06:45.371Z,73.70
2019-03-26T00:09:15.219Z,73.60
2019-03-26T00:11:44.925Z,73.20
2019-03-26T00:14:14.868Z,73.40
2019-03-26T00:16:44.597Z,73.50
2019-03-26T00:19:14.476Z,73.70
2019-03-26T00:21:44.182Z,73.40
2019-03-26T00:24:14.001Z,74.50
2019-03-26T00:26:43.705Z,74.90
2019-03-26T00:29:13.594Z,74.60
2019-03-26T00:31:43.714Z,74.40
2019-03-26T00:34:19.240Z,74.60
2019-03-26T00:36:44.823Z,75.00
2019-03-26T00:39:14.501Z,75.30
2019-03-26T00:41:44.224Z,75.60
2019-03-26T00:44:13.919Z,75.80
2019-03-26T00:46:43.695Z,76.10
2019-03-26T00:49:13.377Z,76.80
2019-03-26T00:51:43.127Z,76.10
2019-03-26T00:54:12.808Z,76.40
2019-03-26T00:56:42.504Z,76.70
2019-03-26T00:59:12.168Z,76.50
2019-03-26T01:01:41.864Z,75.20
2019-03-26T01:04:11.586Z,75.40
2019-03-26T01:06:41.435Z,75.00
2019-03-26T01:09:11.167Z,74.90
2019-03-26T01:11:41.024Z,74.80
2019-03-26T01:14:10.721Z,74.90
2019-03-26T01:16:40.467Z,75.20
2019-03-26T01:19:10.219Z,76.10
2019-03-26T01:21:39.918Z,75.40
2019-03-26T01:24:09.599Z,75.70
2019-03-26T01:26:39.304Z,76.30
2019-03-26T01:29:09.049Z,75.80
2019-03-26T01:31:38.791Z,75.40
2019-03-26T01:34:08.714Z,75.40
2019-03-26T01:36:38.404Z,75.00
2019-03-26T01:39:08.257Z,75.10
2019-03-26T01:41:37.923Z,75.20
2019-03-26T01:44:07.633Z,75.30
2019-03-26T01:46:37.309Z,75.60
2019-03-26T01:49:07.032Z,75.40
2019-03-26T01:51:36.704Z,75.00
2019-03-26T01:54:07.901Z,74.30
2019-03-26T01:56:37.594Z,75.00
2019-03-26T01:59:07.341Z,75.80
2019-03-26T02:01:37.037Z,75.60
2019-03-26T02:04:06.805Z,74.70
2019-03-26T02:06:36.488Z,74.60
2019-03-26T02:09:07.329Z,74.90
2019-03-26T02:11:37.017Z,75.40
2019-03-26T02:14:06.753Z,76.70
2019-03-26T02:16:36.426Z,75.90
2019-03-26T02:19:06.130Z,75.40
2019-03-26T02:21:35.817Z,75.40
2019-03-26T02:24:05.791Z,75.60
2019-03-26T02:26:35.485Z,75.60
2019-03-26T02:29:05.205Z,75.10
2019-03-26T02:31:34.889Z,74.80
2019-03-26T02:34:04.650Z,74.60
2019-03-26T02:36:34.568Z,74.50
2019-03-26T02:39:05.997Z,74.90
2019-03-26T02:41:37.851Z,74.80
2019-03-26T02:44:07.116Z,74.90
2019-03-26T02:46:36.819Z,75.10
2019-03-26T02:49:06.789Z,75.70
2019-03-26T02:51:36.488Z,75.90
2019-03-26T02:54:06.385Z,76.00
2019-03-26T02:56:36.093Z,76.40
2019-03-26T02:59:05.765Z,76.90
2019-03-26T03:01:35.769Z,76.70
2019-03-26T03:04:05.523Z,76.60
2019-03-26T03:06:35.238Z,76.60
2019-03-26T03:09:06.400Z,76.70
2019-03-26T03:11:36.120Z,78.00
2019-03-26T03:14:05.796Z,77.80
2019-03-26T03:16:35.494Z,77.80
2019-03-26T03:19:05.268Z,77.80
2019-03-26T03:21:35.020Z,78.00
2019-03-26T03:24:04.700Z,78.40
2019-03-26T03:26:34.428Z,78.30
2019-03-26T03:29:04.313Z,77.90
2019-03-26T03:31:34.019Z,77.60
2019-03-26T03:34:03.797Z,77.50
2019-03-26T03:36:33.727Z,77.50
2019-03-26T03:39:05.241Z,76.80
2019-03-26T03:41:35.318Z,77.30
2019-03-26T03:44:05.010Z,77.30
2019-03-26T03:46:35.507Z,77.10
2019-03-26T03:49:05.388Z,78.10
2019-03-26T03:51:36.040Z,78.20
2019-03-26T03:54:05.812Z,77.90
2019-03-26T03:56:37.584Z,77.60
2019-03-26T03:59:10.221Z,77.20
2019-03-26T04:01:39.922Z,77.30
2019-03-26T04:04:09.635Z,77.50
2019-03-26T04:06:46.978Z,77.60
2019-03-26T04:09:14.359Z,78.40
2019-03-26T04:11:44.115Z,77.60
2019-03-26T04:14:13.837Z,78.50
2019-03-26T04:16:43.595Z,78.20
2019-03-26T04:19:13.305Z,78.90
2019-03-26T04:21:43.019Z,78.30
2019-03-26T04:24:12.931Z,78.90
2019-03-26T04:26:42.866Z,78.70
2019-03-26T04:29:12.577Z,78.60
2019-03-26T04:31:42.248Z,78.20
2019-03-26T04:34:11.982Z,78.10
2019-03-26T04:36:41.654Z,77.90
2019-03-26T04:39:11.358Z,78.20
2019-03-26T04:41:41.035Z,78.30
2019-03-26T04:44:10.830Z,78.30
2019-03-26T04:46:40.517Z,78.30
2019-03-26T04:49:10.444Z,78.80
2019-03-26T04:51:40.146Z,79.20
2019-03-26T04:54:09.844Z,79.40
2019-03-26T04:56:39.515Z,80.50
2019-03-26T04:59:09.222Z,80.20
2019-03-26T05:01:38.913Z,79.70
2019-03-26T05:04:08.781Z,79.40
2019-03-26T05:06:38.596Z,79.10
2019-03-26T05:09:08.381Z,78.80
2019-03-26T05:11:38.088Z,78.50
2019-03-26T05:14:07.865Z,78.40
2019-03-26T05:16:37.605Z,78.50
2019-03-26T05:19:07.411Z,79.00
2019-03-26T05:21:37.211Z,79.10
2019-03-26T05:24:06.967Z,78.90
2019-03-26T05:26:36.640Z,79.00
2019-03-26T05:29:25.149Z,79.40
2019-03-26T05:31:54.892Z,79.60
2019-03-26T05:34:24.718Z,80.00
2019-03-26T05:36:54.424Z,79.60
2019-03-26T05:39:24.205Z,79.40
2019-03-26T05:41:53.925Z,79.10
2019-03-26T05:44:23.863Z,78.90
2019-03-26T05:46:53.701Z,79.80
2019-03-26T05:49:25.672Z,79.80
2019-03-26T05:51:55.417Z,80.00
2019-03-26T05:54:26.889Z,80.40
2019-03-26T05:56:56.630Z,80.80
2019-03-26T05:59:26.396Z,79.30
2019-03-26T06:01:56.187Z,78.90
2019-03-26T06:04:25.916Z,79.10
2019-03-26T06:07:04.635Z,79.30
2019-03-26T06:09:27.160Z,79.30
2019-03-26T06:12:05.839Z,79.40
2019-03-26T06:14:35.541Z,79.20
2019-03-26T06:17:05.249Z,79.10
2019-03-26T06:19:34.940Z,78.90
2019-03-26T06:22:04.796Z,79.00
2019-03-26T06:24:34.505Z,79.20
2019-03-26T06:27:04.318Z,79.00
2019-03-26T06:29:34.021Z,78.80
2019-03-26T06:32:03.743Z,78.30
2019-03-26T06:34:33.442Z,78.20
2019-03-26T06:37:03.246Z,77.90
2019-03-26T06:39:33.012Z,78.00
2019-03-26T06:42:02.743Z,77.50
2019-03-26T06:44:32.700Z,77.70
2019-03-26T06:47:02.435Z,77.40
2019-03-26T06:49:32.176Z,77.40
2019-03-26T06:52:02.007Z,77.90
2019-03-26T06:54:31.999Z,77.90
2019-03-26T06:57:01.666Z,77.80
2019-03-26T06:59:31.423Z,78.20
2019-03-26T07:02:01.223Z,78.30
2019-03-26T07:04:30.956Z,77.80
2019-03-26T07:07:00.659Z,77.60
2019-03-26T07:09:30.540Z,77.80
2019-03-26T07:12:00.259Z,78.10
2019-03-26T07:14:30.213Z,77.00
2019-03-26T07:17:00.128Z,76.80
2019-03-26T07:19:29.832Z,76.40
2019-03-26T07:21:59.527Z,76.20
2019-03-26T07:24:29.296Z,75.60
2019-03-26T07:26:59.272Z,75.80
2019-03-26T07:29:28.979Z,76.50
2019-03-26T07:31:58.800Z,77.20
2019-03-26T07:34:30.614Z,78.00
2019-03-26T07:37:00.307Z,76.50
2019-03-26T07:39:30.010Z,76.50
2019-03-26T07:41:59.714Z,77.20
2019-03-26T07:44:29.457Z,76.80
2019-03-26T07:46:59.134Z,76.30
2019-03-26T07:49:28.813Z,75.40
2019-03-26T07:51:58.564Z,75.50
2019-03-26T07:54:28.333Z,75.00
2019-03-26T07:56:58.041Z,75.30
2019-03-26T07:59:27.768Z,75.40
2019-03-26T08:01:57.551Z,75.50
2019-03-26T08:04:27.224Z,75.50
2019-03-26T08:06:56.911Z,74.70
2019-03-26T08:09:26.781Z,74.80
2019-03-26T08:11:56.735Z,75.00
2019-03-26T08:14:26.458Z,75.20
2019-03-26T08:16:56.205Z,74.50
2019-03-26T08:19:25.898Z,74.30
2019-03-26T08:21:55.590Z,74.00
2019-03-26T08:24:25.295Z,74.30
2019-03-26T08:26:55.023Z,74.10
2019-03-26T08:29:24.721Z,74.30
2019-03-26T08:31:54.552Z,74.80
2019-03-26T08:34:24.334Z,74.70
2019-03-26T08:36:54.053Z,73.80
2019-03-26T08:39:23.784Z,73.40
2019-03-26T08:41:53.580Z,73.00
2019-03-26T08:44:23.285Z,73.10
2019-03-26T08:46:53.004Z,73.10
2019-03-26T08:49:22.726Z,71.20
2019-03-26T08:51:52.472Z,70.90
2019-03-26T08:54:22.245Z,70.90
2019-03-26T08:56:51.964Z,70.40
2019-03-26T08:59:21.684Z,71.20
2019-03-26T09:01:51.383Z,69.90
2019-03-26T09:04:21.167Z,70.20
2019-03-26T09:06:50.858Z,70.70
2019-03-26T09:09:20.589Z,69.50
2019-03-26T09:11:50.274Z,70.20
2019-03-26T09:14:19.981Z,70.20
2019-03-26T09:16:49.760Z,68.70
2019-03-26T09:19:19.481Z,70.20
2019-03-26T09:21:49.153Z,69.60
2019-03-26T09:24:18.889Z,69.50
2019-03-26T09:26:48.633Z,69.20
2019-03-26T09:29:18.522Z,69.90
2019-03-26T09:31:48.203Z,69.80
2019-03-26T09:34:17.928Z,68.50
2019-03-26T09:36:47.600Z,67.80
2019-03-26T09:39:17.307Z,67.50
2019-03-26T09:41:47.026Z,67.40
2019-03-26T09:44:16.730Z,67.20
2019-03-26T09:46:46.416Z,66.90
2019-03-26T09:49:17.308Z,66.00
2019-03-26T09:51:47.010Z,66.70
2019-03-26T09:54:16.712Z,67.00
2019-03-26T09:56:46.392Z,65.60
2019-03-26T09:59:16.076Z,64.30
2019-03-26T10:01:45.880Z,61.20
2019-03-26T10:04:15.679Z,58.90
2019-03-26T10:06:45.440Z,58.50
2019-03-26T10:09:15.142Z,59.60
2019-03-26T10:11:44.812Z,59.50
2019-03-26T10:14:14.932Z,58.80
2019-03-26T10:16:44.685Z,57.00
2019-03-26T10:19:16.892Z,56.80
2019-03-26T10:21:45.888Z,55.80
2019-03-26T10:24:15.600Z,55.90
2019-03-26T10:26:45.313Z,55.80
2019-03-26T10:29:29.202Z,55.50
2019-03-26T10:31:46.480Z,54.30
2019-03-26T10:34:16.180Z,55.40
2019-03-26T10:36:45.873Z,55.00
2019-03-26T10:39:15.580Z,55.10
2019-03-26T10:41:45.541Z,54.70
2019-03-26T10:44:15.211Z,53.70
2019-03-26T10:46:44.912Z,53.20
2019-03-26T10:49:14.612Z,54.00
2019-03-26T10:51:44.357Z,53.90
2019-03-26T10:54:14.025Z,50.70
2019-03-26T10:56:43.733Z,50.10
2019-03-26T10:59:13.413Z,50.30
2019-03-26T11:01:43.125Z,50.60
2019-03-26T11:04:12.813Z,51.10
2019-03-26T11:06:42.593Z,52.40
2019-03-26T11:09:23.060Z,51.40
2019-03-26T11:11:43.716Z,52.10
2019-03-26T11:14:13.411Z,50.90
2019-03-26T11:16:43.143Z,51.50
2019-03-26T11:19:12.852Z,50.80
2019-03-26T11:21:42.589Z,51.70
2019-03-26T11:24:12.251Z,51.90
2019-03-26T11:26:41.959Z,52.20
2019-03-26T11:29:11.680Z,53.40
2019-03-26T11:31:41.407Z,54.20
2019-03-26T11:34:11.187Z,54.90
2019-03-26T11:36:40.877Z,56.00
2019-03-26T11:39:10.775Z,54.70
2019-03-26T11:41:40.486Z,53.90
2019-03-26T11:44:10.188Z,53.60
2019-03-26T11:46:40.028Z,52.80
2019-03-26T11:49:09.760Z,51.50
2019-03-26T11:51:39.485Z,50.30
2019-03-26T11:54:09.264Z,48.60
2019-03-26T11:56:38.976Z,45.60
2019-03-26T11:59:08.686Z,44.90
2019-03-26T12:01:38.428Z,44.60
2019-03-26T12:04:08.124Z,44.10
2019-03-26T12:06:37.814Z,45.90
2019-03-26T12:09:09.014Z,46.60
2019-03-26T12:11:38.708Z,47.50
2019-03-26T12:14:08.440Z,48.50
2019-03-26T12:16:38.136Z,48.10
2019-03-26T12:19:07.867Z,47.80
2019-03-26T12:21:37.555Z,47.50
2019-03-26T12:24:07.274Z,48.40
2019-03-26T12:26:36.968Z,46.30
2019-03-26T12:29:06.722Z,46.80
2019-03-26T12:31:36.480Z,45.60
2019-03-26T12:34:06.368Z,39.90
2019-03-26T12:36:40.135Z,31.40
2019-03-26T12:39:08.458Z,27.50
2019-03-26T12:41:38.623Z,26.00
2019-03-26T12:44:08.630Z,24.90
2019-03-26T12:46:38.395Z,27.10
2019-03-26T12:49:08.165Z,27.30
2019-03-26T12:51:39.441Z,23.60
2019-03-26T12:54:09.379Z,21.10
2019-03-26T12:56:39.080Z,22.10
2019-03-26T12:59:08.796Z,26.20
2019-03-26T13:01:38.526Z,29.80
2019-03-26T13:04:13.294Z,33.10
2019-03-26T13:06:39.664Z,35.60
2019-03-26T13:09:10.312Z,37.60
2019-03-26T13:11:40.041Z,37.80
2019-03-26T13:14:09.751Z,32.10
2019-03-26T13:16:39.572Z,32.40
2019-03-26T13:19:09.308Z,35.20
2019-03-26T13:21:39.143Z,34.80
2019-03-26T13:24:11.318Z,32.90
2019-03-26T13:26:40.245Z,26.80
2019-03-26T13:29:10.030Z,24.80
2019-03-26T13:31:39.711Z,26.90
2019-03-26T13:34:09.456Z,29.40
2019-03-26T13:36:39.396Z,32.30
2019-03-26T13:39:10.273Z,33.30
2019-03-26T13:41:40.060Z,34.30
2019-03-26T13:44:09.971Z,34.10
2019-03-26T13:46:39.732Z,36.00
2019-03-26T13:49:09.440Z,37.70
2019-03-26T13:51:39.189Z,39.30
2019-03-26T13:54:09.108Z,41.70
2019-03-26T13:56:38.912Z,43.40
2019-03-26T13:59:08.642Z,44.50
2019-03-26T14:01:38.447Z,45.00
2019-03-26T14:04:08.209Z,45.40
2019-03-26T14:06:37.928Z,45.60
2019-03-26T14:09:09.113Z,46.00
2019-03-26T14:11:38.795Z,45.50
2019-03-26T14:14:08.641Z,44.20
2019-03-26T14:16:38.514Z,43.40
2019-03-26T14:19:08.243Z,42.80
2019-03-26T14:21:37.954Z,42.30
2019-03-26T14:24:07.668Z,42.10
2019-03-26T14:26:37.366Z,42.10
2019-03-26T14:29:07.077Z,41.90
2019-03-26T14:31:36.868Z,41.70
2019-03-26T14:34:06.625Z,41.20
2019-03-26T14:36:36.367Z,41.10
2019-03-26T14:39:09.354Z,40.90
2019-03-26T14:41:39.176Z,40.70
2019-03-26T14:44:09.072Z,40.40
2019-03-26T14:46:38.792Z,41.00
2019-03-26T14:49:08.472Z,40.10
2019-03-26T14:51:38.213Z,40.20
2019-03-26T14:54:07.931Z,39.10
2019-03-26T14:56:37.664Z,40.40
2019-03-26T14:59:07.377Z,41.20
2019-03-26T15:01:37.229Z,40.00
2019-03-26T15:04:07.027Z,39.40
2019-03-26T15:06:36.845Z,40.00
2019-03-26T15:09:09.015Z,39.60
2019-03-26T15:11:38.836Z,39.60
2019-03-26T15:14:08.507Z,40.00
2019-03-26T15:16:38.300Z,40.20
2019-03-26T15:19:08.029Z,40.70
2019-03-26T15:21:37.949Z,41.10
2019-03-26T15:24:07.645Z,40.10
2019-03-26T15:26:37.363Z,40.60
2019-03-26T15:29:07.082Z,40.90
2019-03-26T15:31:36.802Z,40.10
2019-03-26T15:34:06.515Z,40.80
2019-03-26T15:36:36.261Z,40.50
2019-03-26T15:39:07.774Z,40.60
2019-03-26T15:41:37.477Z,41.40
2019-03-26T15:44:07.183Z,42.10
2019-03-26T15:46:36.976Z,41.30
2019-03-26T15:49:06.684Z,42.00
2019-03-26T15:51:36.520Z,43.10
2019-03-26T15:54:06.242Z,43.70
2019-03-26T15:56:35.966Z,43.90
2019-03-26T15:59:05.786Z,43.90
2019-03-26T16:01:35.569Z,43.60
2019-03-26T16:04:05.656Z,43.40
2019-03-26T16:06:35.373Z,43.20
2019-03-26T16:09:07.164Z,43.80
2019-03-26T16:11:36.991Z,43.70
2019-03-26T16:14:06.862Z,43.70
2019-03-26T16:16:38.030Z,44.00
2019-03-26T16:19:07.763Z,44.40
2019-03-26T16:21:37.627Z,44.40
2019-03-26T16:24:07.509Z,44.20
2019-03-26T16:26:37.222Z,44.80
2019-03-26T16:29:07.044Z,45.10
2019-03-26T16:31:36.760Z,45.30
2019-03-26T16:34:06.464Z,45.30
2019-03-26T16:36:36.171Z,45.50
2019-03-26T16:39:08.033Z,45.80
2019-03-26T16:41:48.417Z,45.90
2019-03-26T16:44:09.224Z,47.60
2019-03-26T16:46:38.956Z,47.10
2019-03-26T16:49:08.690Z,47.30
2019-03-26T16:51:38.569Z,48.40
2019-03-26T16:54:08.293Z,47.70
2019-03-26T16:56:37.985Z,47.80
2019-03-26T16:59:07.867Z,47.90
2019-03-26T17:01:37.587Z,47.80
2019-03-26T17:04:07.397Z,47.80
2019-03-26T17:06:37.105Z,48.10
2019-03-26T17:09:08.073Z,48.30
2019-03-26T17:11:37.804Z,48.40
2019-03-26T17:14:07.513Z,48.10
2019-03-26T17:16:37.284Z,48.30
2019-03-26T17:19:06.961Z,48.30
2019-03-26T17:21:36.675Z,48.60
2019-03-26T17:24:06.384Z,48.50
2019-03-26T17:26:36.205Z,48.60
2019-03-26T17:29:05.996Z,48.60
2019-03-26T17:31:35.828Z,48.70
2019-03-26T17:34:05.519Z,48.80
2019-03-26T17:36:35.242Z,48.70
2019-03-26T17:39:07.413Z,48.60
2019-03-26T17:41:37.326Z,48.20
2019-03-26T17:44:07.245Z,48.60
2019-03-26T17:46:36.979Z,48.60
2019-03-26T17:49:06.701Z,48.40
2019-03-26T17:51:36.480Z,48.40
2019-03-26T17:54:06.180Z,47.90
2019-03-26T17:56:36.000Z,47.80
2019-03-26T17:59:05.821Z,48.00
2019-03-26T18:01:35.569Z,47.60
2019-03-26T18:04:05.261Z,47.70
2019-03-26T18:06:35.038Z,47.40
2019-03-26T18:09:06.045Z,47.20
2019-03-26T18:11:35.788Z,46.70
2019-03-26T18:14:05.569Z,46.70
2019-03-26T18:16:35.382Z,47.20
2019-03-26T18:19:05.089Z,47.10
2019-03-26T18:21:34.924Z,46.90
2019-03-26T18:24:04.615Z,46.80
2019-03-26T18:26:34.340Z,46.80
2019-03-26T18:29:04.081Z,47.00
2019-03-26T18:31:33.978Z,47.00
2019-03-26T18:34:03.677Z,47.10
2019-03-26T18:36:33.612Z,47.30
2019-03-26T18:39:04.395Z,47.40
2019-03-26T18:41:34.117Z,47.00
2019-03-26T18:44:03.871Z,47.30
2019-03-26T18:46:33.594Z,47.40
2019-03-26T18:49:03.316Z,47.70
2019-03-26T18:51:33.028Z,47.10
2019-03-26T18:54:02.863Z,47.30
2019-03-26T18:56:32.606Z,46.90
2019-03-26T18:59:02.674Z,47.90
2019-03-26T19:01:32.372Z,47.30
2019-03-26T19:04:02.304Z,47.30
2019-03-26T19:06:32.000Z,47.60
2019-03-26T19:09:01.787Z,47.80
2019-03-26T19:11:31.498Z,47.60
2019-03-26T19:14:01.348Z,47.50
2019-03-26T19:16:31.134Z,47.70
2019-03-26T19:19:01.039Z,47.60
2019-03-26T19:21:30.836Z,48.80
2019-03-26T19:24:04.345Z,48.10
2019-03-26T19:26:32.044Z,48.30
2019-03-26T19:29:01.786Z,48.20
2019-03-26T19:31:31.699Z,48.40
2019-03-26T19:34:01.943Z,48.00
2019-03-26T19:36:31.852Z,47.90
2019-03-26T19:39:01.641Z,48.10
2019-03-26T19:41:31.477Z,48.10
2019-03-26T19:44:01.181Z,48.00
2019-03-26T19:46:30.933Z,48.00
2019-03-26T19:49:00.650Z,48.40
2019-03-26T19:51:30.475Z,48.50
2019-03-26T19:54:00.381Z,48.50
2019-03-26T19:56:30.283Z,48.80
2019-03-26T19:59:00.012Z,49.30
2019-03-26T20:01:29.973Z,49.90
2019-03-26T20:04:00.070Z,49.80
2019-03-26T20:06:29.963Z,50.10
2019-03-26T20:08:59.780Z,50.20
2019-03-26T20:11:29.522Z,51.60
2019-03-26T20:13:59.450Z,52.20
2019-03-26T20:16:41.361Z,52.80
2019-03-26T20:19:00.744Z,53.30
2019-03-26T20:21:30.577Z,53.40
2019-03-26T20:24:00.293Z,53.90
2019-03-26T20:26:30.020Z,53.30
2019-03-26T20:28:59.754Z,53.30
2019-03-26T20:31:29.674Z,53.80
2019-03-26T20:33:59.423Z,53.50
2019-03-26T20:36:29.272Z,53.40
2019-03-26T20:38:58.979Z,53.70
2019-03-26T20:41:28.732Z,53.70
2019-03-26T20:43:58.486Z,54.30
2019-03-26T20:46:28.381Z,54.80
2019-03-26T20:48:58.280Z,54.60
2019-03-26T20:51:28.105Z,54.90
2019-03-26T20:53:57.913Z,55.00
2019-03-26T20:56:28.021Z,55.10
2019-03-26T20:58:58.068Z,55.60
2019-03-26T21:01:27.871Z,55.80
2019-03-26T21:03:57.675Z,56.50
2019-03-26T21:06:27.431Z,56.10
2019-03-26T21:08:57.154Z,55.70
2019-03-26T21:11:26.843Z,55.80
2019-03-26T21:13:56.621Z,55.70
2019-03-26T21:16:26.325Z,55.40
2019-03-26T21:18:56.146Z,55.80
2019-03-26T21:21:25.930Z,55.20
2019-03-26T21:23:55.721Z,55.80
2019-03-26T21:26:25.488Z,55.70
2019-03-26T21:28:55.298Z,55.90
2019-03-26T21:31:25.048Z,55.70
2019-03-26T21:33:54.781Z,55.40
2019-03-26T21:36:24.474Z,55.50
2019-03-26T21:38:54.309Z,55.00
2019-03-26T21:41:24.094Z,55.20
2019-03-26T21:44:03.506Z,55.40
2019-03-26T21:46:25.297Z,56.00
2019-03-26T21:48:55.132Z,55.70
2019-03-26T21:51:24.861Z,55.40
2019-03-26T21:53:54.651Z,55.40
2019-03-26T21:56:24.353Z,56.20
2019-03-26T21:58:54.056Z,56.40
2019-03-26T22:01:23.792Z,56.80
2019-03-26T22:03:53.593Z,56.10
2019-03-26T22:06:23.320Z,56.60
2019-03-26T22:08:53.048Z,57.20
2019-03-26T22:11:22.781Z,57.80
2019-03-26T22:13:52.514Z,58.90
2019-03-26T22:16:22.388Z,57.50
2019-03-26T22:18:52.139Z,57.90
2019-03-26T22:21:21.872Z,58.20
2019-03-26T22:23:51.622Z,58.50
2019-03-26T22:26:21.406Z,58.50
2019-03-26T22:28:51.108Z,57.80
2019-03-26T22:31:20.853Z,58.00
2019-03-26T22:33:50.579Z,59.00
2019-03-26T22:36:20.322Z,58.10
2019-03-26T22:38:50.100Z,57.90
2019-03-26T22:41:19.900Z,57.90
2019-03-26T22:43:49.618Z,58.20
2019-03-26T22:46:19.389Z,58.20
2019-03-26T22:48:49.185Z,58.60
2019-03-26T22:51:18.926Z,59.00
2019-03-26T22:53:48.656Z,57.70
2019-03-26T22:56:18.405Z,57.80
2019-03-26T22:58:48.161Z,57.90
2019-03-26T23:01:18.200Z,58.60
2019-03-26T23:03:47.892Z,59.10
2019-03-26T23:06:17.631Z,58.70
2019-03-26T23:08:47.407Z,59.00
2019-03-26T23:11:17.120Z,59.30
2019-03-26T23:13:46.830Z,59.70
2019-03-26T23:16:16.588Z,59.10
2019-03-26T23:18:46.313Z,58.90
2019-03-26T23:21:16.044Z,59.10
2019-03-26T23:23:45.821Z,59.20
2019-03-26T23:26:15.532Z,59.00
2019-03-26T23:28:45.274Z,58.90
2019-03-26T23:31:14.983Z,59.40
2019-03-26T23:33:44.696Z,59.90
2019-03-26T23:36:14.384Z,60.70
2019-03-26T23:38:44.164Z,61.10
2019-03-26T23:41:13.845Z,60.80
2019-03-26T23:43:43.636Z,58.90
2019-03-26T23:46:13.326Z,58.40
2019-03-26T23:48:43.106Z,60.20
2019-03-26T23:51:12.883Z,61.70
2019-03-26T23:53:42.629Z,61.30
2019-03-26T23:56:12.398Z,61.00
2019-03-26T23:58:42.131Z,61.80
